This is the latest recevied weather packets stored in our database for station/object K9MWD. If no packets are shown the sender has not sent any weather packets the latest 10 day(s).
| Time | Temp. | Humidity | Pressure | Rain* | Wind** | Luminosity | Snow |
|---|---|---|---|---|---|---|---|
| 1788285045 | 35.56° C | 45% | 1016.6 hPa | 0 mm | - | 181 W/m² | - |
| 1788284741 | 35° C | 47% | 1016.6 hPa | 0 mm | - | 946 W/m² | - |
| 1788284437 | 35.56° C | 47% | 1016.9 hPa | 0 mm | - | 937 W/m² | - |
| 1788284132 | 35° C | 48% | 1017.1 hPa | 0 mm | - | 930 W/m² | - |
| 1788283828 | 35° C | 48% | 1017 hPa | 0 mm | - | 922 W/m² | - |
| 1788283523 | 33.89° C | 50% | 1017.1 hPa | 0 mm | - | 950 W/m² | - |
| 1788283221 | 34.44° C | 50% | 1017.1 hPa | 0 mm | - | 156 W/m² | - |
| 1788282921 | 35° C | 50% | 1017.2 hPa | 0 mm | - | 261 W/m² | - |
| 1788282620 | 34.44° C | 50% | 1017.3 hPa | 0 mm | - | 271 W/m² | - |
| 1788282314 | 33.89° C | 49% | 1017.3 hPa | 0 mm | - | 947 W/m² | - |
| 1788282015 | 33.89° C | 52% | 1017.3 hPa | 0 mm | - | 851 W/m² | - |
| 1788281722 | 34.44° C | 50% | 1017.4 hPa | 0 mm | - | 942 W/m² | - |
| 1788281404 | 34.44° C | 50% | 1017.3 hPa | 0 mm | - | 243 W/m² | - |
| 1788281099 | 35.56° C | 47% | 1017.4 hPa | 0 mm | - | 898 W/m² | - |
| 1788280794 | 35° C | 49% | 1017.3 hPa | 0 mm | - | 849 W/m² | - |
| 1788280489 | 33.33° C | 51% | 1017.5 hPa | 0 mm | - | 802 W/m² | - |
| 1788280188 | 33.89° C | 52% | 1017.5 hPa | 0 mm | - | 202 W/m² | - |
| 1788279884 | 34.44° C | 50% | 1017.5 hPa | 0 mm | - | 609 W/m² | - |
| 1788279583 | 33.33° C | 52% | 1017.5 hPa | 0 mm | - | 838 W/m² | - |
| 1788279282 | 34.44° C | 52% | 1017.8 hPa | 0 mm | - | 786 W/m² | - |
| 1788278977 | 33.89° C | 52% | 1017.6 hPa | 0 mm | - | 638 W/m² | - |
| 1788278673 | 33.89° C | 53% | 1017.7 hPa | 0 mm | - | 704 W/m² | - |
| 1788278372 | 33.89° C | 52% | 1017.6 hPa | 0 mm | - | 687 W/m² | - |
| 1788278067 | 34.44° C | 52% | 1017.5 hPa | 0 mm | - | 666 W/m² | - |
| 1788277764 | 33.89° C | 51% | 1017.6 hPa | 0 mm | - | 643 W/m² | - |
* Rain latest hour (hover to see other rain measurements)
** Current wind speed in m/s (hover to see current wind gust speed)